Terminal Aerodrome Forecast
Issued by NWS

Home | Current Version | Previous Version | Text Only | Print | Product List | Glossary On
Versions: 1 2 3 4 5 6 7 8 9 10 11 12 13 14 15 16 17 18
000
FTUS46 KMTR 231100
TAFSTS
TAF
KSTS 231137Z 2312/2412 00000KT P6SM FEW022 OVC035
     FM231400 00000KT P6SM BKN022 OVC035
     FM231800 19006KT P6SM SKC
     FM232100 19011KT P6SM SKC
     FM240300 18004KT P6SM SKC
     FM240800 00000KT P6SM SKC=

USA.gov is the U.S. government's official web portal to all federal, state and local government web resources and services.